sensor_id;sensor_type;location;lat;lon;timestamp;pressure;altitude;pressure_sealevel;temperature;humidity
70206;BME280;57593;55.896;37.396;2022-12-10T00:00:07;99284.72;;;-1.03;100.00
70206;BME280;57593;55.896;37.396;2022-12-10T00:00:37;99272.56;;;-0.97;100.00
70206;BME280;57593;55.896;37.396;2022-12-10T00:01:10;99272.31;;;-0.96;100.00
70206;BME280;57593;55.896;37.396;2022-12-10T00:01:42;99270.50;;;-0.95;100.00
70206;BME280;57593;55.896;37.396;2022-12-10T00:02:13;99267.13;;;-0.91;100.00
70206;BME280;57593;55.896;37.396;2022-12-10T00:02:44;99272.06;;;-0.89;100.00
70206;BME280;57593;55.896;37.396;2022-12-10T00:03:14;99268.47;;;-0.83;100.00
70206;BME280;57593;55.896;37.396;2022-12-10T00:03:45;99268.22;;;-0.76;100.00
70206;BME280;57593;55.896;37.396;2022-12-10T00:04:16;99263.56;;;-0.69;100.00
70206;BME280;57593;55.896;37.396;2022-12-10T00:04:47;99273.69;;;-0.67;100.00
70206;BME280;57593;55.896;37.396;2022-12-10T00:05:17;99274.72;;;-0.68;100.00
70206;BME280;57593;55.896;37.396;2022-12-10T00:05:48;99277.84;;;-0.66;100.00
70206;BME280;57593;55.896;37.396;2022-12-10T00:06:21;99278.34;;;-0.64;100.00
70206;BME280;57593;55.896;37.396;2022-12-10T00:06:52;99281.47;;;-0.62;100.00
70206;BME280;57593;55.896;37.396;2022-12-10T00:07:23;99288.22;;;-0.66;100.00
70206;BME280;57593;55.896;37.396;2022-12-10T00:07:53;99289.25;;;-0.73;100.00
70206;BME280;57593;55.896;37.396;2022-12-10T00:08:24;99286.91;;;-0.74;100.00
70206;BME280;57593;55.896;37.396;2022-12-10T00:08:54;99287.66;;;-0.79;100.00
70206;BME280;57593;55.896;37.396;2022-12-10T00:09:25;99290.75;;;-0.87;100.00
70206;BME280;57593;55.896;37.396;2022-12-10T00:09:56;99291.78;;;-0.83;100.00
70206;BME280;57593;55.896;37.396;2022-12-10T00:10:26;99290.72;;;-0.92;100.00
70206;BME280;57593;55.896;37.396;2022-12-10T00:10:57;99292.84;;;-0.79;100.00
70206;BME280;57593;55.896;37.396;2022-12-10T00:11:28;99290.22;;;-0.89;100.00
70206;BME280;57593;55.896;37.396;2022-12-10T00:11:59;99292.59;;;-0.82;100.00
70206;BME280;57593;55.896;37.396;2022-12-10T00:12:29;99297.28;;;-0.79;100.00
70206;BME280;57593;55.896;37.396;2022-12-10T00:13:00;99296.25;;;-0.68;100.00
70206;BME280;57593;55.896;37.396;2022-12-10T00:13:32;99286.91;;;-0.74;100.00
70206;BME280;57593;55.896;37.396;2022-12-10T00:14:04;99287.63;;;-0.99;100.00
70206;BME280;57593;55.896;37.396;2022-12-10T00:14:37;99275.69;;;-0.95;100.00
70206;BME280;57593;55.896;37.396;2022-12-10T00:15:08;99268.47;;;-0.83;100.00
70206;BME280;57593;55.896;37.396;2022-12-10T00:15:38;99276.53;;;-0.79;100.00
70206;BME280;57593;55.896;37.396;2022-12-10T00:16:11;99279.34;;;-0.91;100.00
70206;BME280;57593;55.896;37.396;2022-12-10T00:16:42;99286.03;;;-1.05;100.00
70206;BME280;57593;55.896;37.396;2022-12-10T00:17:13;99281.63;;;-1.05;100.00
70206;BME280;57593;55.896;37.396;2022-12-10T00:17:43;99280.09;;;-0.91;100.00
70206;BME280;57593;55.896;37.396;2022-12-10T00:18:14;99275.47;;;-0.83;100.00
70206;BME280;57593;55.896;37.396;2022-12-10T00:18:45;99278.31;;;-0.80;100.00
70206;BME280;57593;55.896;37.396;2022-12-10T00:19:16;99274.94;;;-0.85;100.00
70206;BME280;57593;55.896;37.396;2022-12-10T00:19:47;99263.78;;;-0.86;100.00
70206;BME280;57593;55.896;37.396;2022-12-10T00:20:17;99271.03;;;-0.93;100.00
70206;BME280;57593;55.896;37.396;2022-12-10T00:20:48;99273.34;;;-1.07;100.00
70206;BME280;57593;55.896;37.396;2022-12-10T00:21:24;99269.16;;;-1.13;100.00
70206;BME280;57593;55.896;37.396;2022-12-10T00:21:55;99271.50;;;-1.06;100.00
70206;BME280;57593;55.896;37.396;2022-12-10T00:22:25;99268.41;;;-1.14;100.00
70206;BME280;57593;55.896;37.396;2022-12-10T00:22:56;99260.38;;;-1.07;100.00
70206;BME280;57593;55.896;37.396;2022-12-10T00:23:26;99274.09;;;-1.06;100.00
70206;BME280;57593;55.896;37.396;2022-12-10T00:23:58;99263.22;;;-1.14;100.00
70206;BME280;57593;55.896;37.396;2022-12-10T00:24:29;99266.63;;;-0.93;100.00
70206;BME280;57593;55.896;37.396;2022-12-10T00:24:59;99270.50;;;-1.00;100.00
70206;BME280;57593;55.896;37.396;2022-12-10T00:25:31;99264.28;;;-0.89;100.00
70206;BME280;57593;55.896;37.396;2022-12-10T00:26:41;99259.63;;;-0.92;100.00
70206;BME280;57593;55.896;37.396;2022-12-10T00:27:11;99263.00;;;-0.86;100.00
70206;BME280;57593;55.896;37.396;2022-12-10T00:27:42;99255.25;;;-0.86;100.00
70206;BME280;57593;55.896;37.396;2022-12-10T00:28:13;99259.88;;;-0.99;100.00
70206;BME280;57593;55.896;37.396;2022-12-10T00:28:45;99264.59;;;-0.85;100.00
70206;BME280;57593;55.896;37.396;2022-12-10T00:29:16;99265.31;;;-0.95;100.00
70206;BME280;57593;55.896;37.396;2022-12-10T00:29:47;99270.50;;;-1.05;100.00
70206;BME280;57593;55.896;37.396;2022-12-10T00:30:17;99269.22;;;-0.87;100.00
70206;BME280;57593;55.896;37.396;2022-12-10T00:30:48;99265.88;;;-0.88;100.00
70206;BME280;57593;55.896;37.396;2022-12-10T00:31:21;99271.25;;;-1.05;100.00
70206;BME280;57593;55.896;37.396;2022-12-10T00:31:52;99272.06;;;-0.99;100.00
70206;BME280;57593;55.896;37.396;2022-12-10T00:32:22;99266.56;;;-1.13;100.00
70206;BME280;57593;55.896;37.396;2022-12-10T00:32:53;99270.19;;;-1.14;100.00
70206;BME280;57593;55.896;37.396;2022-12-10T00:33:24;99271.78;;;-1.03;100.00
70206;BME280;57593;55.896;37.396;2022-12-10T00:33:56;99275.16;;;-0.97;100.00
70206;BME280;57593;55.896;37.396;2022-12-10T00:34:27;99261.97;;;-0.91;100.00
70206;BME280;57593;55.896;37.396;2022-12-10T00:34:58;99264.25;;;-1.10;100.00
70206;BME280;57593;55.896;37.396;2022-12-10T00:35:29;99270.50;;;-1.00;100.00
70206;BME280;57593;55.896;37.396;2022-12-10T00:36:05;99267.41;;;-0.97;100.00
70206;BME280;57593;55.896;37.396;2022-12-10T00:36:42;99264.56;;;-0.91;100.00
70206;BME280;57593;55.896;37.396;2022-12-10T00:37:14;99257.78;;;-1.07;100.00
70206;BME280;57593;55.896;37.396;2022-12-10T00:37:44;99262.47;;;-0.99;100.00
70206;BME280;57593;55.896;37.396;2022-12-10T00:38:15;99260.63;;;-0.98;100.00
70206;BME280;57593;55.896;37.396;2022-12-10T00:38:46;99255.44;;;-0.98;100.00
70206;BME280;57593;55.896;37.396;2022-12-10T00:39:19;99246.13;;;-0.94;100.00
70206;BME280;57593;55.896;37.396;2022-12-10T00:39:50;99252.13;;;-0.88;100.00
70206;BME280;57593;55.896;37.396;2022-12-10T00:40:21;99245.38;;;-0.89;100.00
70206;BME280;57593;55.896;37.396;2022-12-10T00:40:52;99257.31;;;-0.88;100.00
70206;BME280;57593;55.896;37.396;2022-12-10T00:41:23;99249.53;;;-0.88;100.00
70206;BME280;57593;55.896;37.396;2022-12-10T00:41:53;99253.16;;;-0.89;100.00
70206;BME280;57593;55.896;37.396;2022-12-10T00:42:24;99256.00;;;-0.91;100.00
70206;BME280;57593;55.896;37.396;2022-12-10T00:42:56;99252.59;;;-0.97;100.00
70206;BME280;57593;55.896;37.396;2022-12-10T00:43:26;99253.66;;;-0.93;100.00
70206;BME280;57593;55.896;37.396;2022-12-10T00:43:57;99251.06;;;-0.87;100.00
70206;BME280;57593;55.896;37.396;2022-12-10T00:44:28;99255.97;;;-1.01;100.00
70206;BME280;57593;55.896;37.396;2022-12-10T00:44:58;99254.44;;;-0.97;100.00
70206;BME280;57593;55.896;37.396;2022-12-10T00:45:29;99253.16;;;-0.95;100.00
70206;BME280;57593;55.896;37.396;2022-12-10T00:46:01;99252.09;;;-0.94;100.00
70206;BME280;57593;55.896;37.396;2022-12-10T00:46:32;99243.81;;;-1.01;100.00
70206;BME280;57593;55.896;37.396;2022-12-10T00:47:03;99251.31;;;-0.99;100.00
70206;BME280;57593;55.896;37.396;2022-12-10T00:47:33;99258.84;;;-0.98;100.00
70206;BME280;57593;55.896;37.396;2022-12-10T00:48:04;99261.44;;;-0.98;100.00
70206;BME280;57593;55.896;37.396;2022-12-10T00:48:35;99259.91;;;-0.88;100.00
70206;BME280;57593;55.896;37.396;2022-12-10T00:49:06;99258.84;;;-0.98;100.00
70206;BME280;57593;55.896;37.396;2022-12-10T00:49:36;99259.63;;;-0.92;100.00
70206;BME280;57593;55.896;37.396;2022-12-10T00:50:07;99266.41;;;-0.81;100.00
70206;BME280;57593;55.896;37.396;2022-12-10T00:50:38;99268.75;;;-0.74;100.00
70206;BME280;57593;55.896;37.396;2022-12-10T00:51:15;99265.38;;;-0.75;100.00
70206;BME280;57593;55.896;37.396;2022-12-10T00:51:45;99265.63;;;-0.76;100.00
70206;BME280;57593;55.896;37.396;2022-12-10T00:52:16;99267.94;;;-0.80;100.00
70206;BME280;57593;55.896;37.396;2022-12-10T00:52:47;99263.00;;;-0.86;100.00
70206;BME280;57593;55.896;37.396;2022-12-10T00:53:17;99273.91;;;-0.84;100.00
70206;BME280;57593;55.896;37.396;2022-12-10T00:53:49;99267.69;;;-0.83;100.00
70206;BME280;57593;55.896;37.396;2022-12-10T00:54:20;99270.53;;;-0.80;100.00
70206;BME280;57593;55.896;37.396;2022-12-10T00:54:51;99261.22;;;-0.81;100.00
70206;BME280;57593;55.896;37.396;2022-12-10T00:55:21;99268.72;;;-0.95;100.00
70206;BME280;57593;55.896;37.396;2022-12-10T00:55:52;99264.31;;;-0.84;100.00
70206;BME280;57593;55.896;37.396;2022-12-10T00:56:26;99258.31;;;-1.00;100.00
70206;BME280;57593;55.896;37.396;2022-12-10T00:56:57;99261.91;;;-1.11;100.00
70206;BME280;57593;55.896;37.396;2022-12-10T00:57:27;99256.47;;;-1.04;100.00
70206;BME280;57593;55.896;37.396;2022-12-10T00:57:58;99250.31;;;-0.88;100.00
70206;BME280;57593;55.896;37.396;2022-12-10T00:58:33;99255.50;;;-0.93;100.00
70206;BME280;57593;55.896;37.396;2022-12-10T00:59:04;99254.97;;;-0.80;100.00
70206;BME280;57593;55.896;37.396;2022-12-10T00:59:35;99248.47;;;-0.93;100.00
70206;BME280;57593;55.896;37.396;2022-12-10T01:00:06;99247.72;;;-0.93;100.00
70206;BME280;57593;55.896;37.396;2022-12-10T01:00:37;99245.63;;;-0.91;100.00
70206;BME280;57593;55.896;37.396;2022-12-10T01:01:32;99242.50;;;-0.98;100.00
70206;BME280;57593;55.896;37.396;2022-12-10T01:02:03;99245.88;;;-0.87;100.00
70206;BME280;57593;55.896;37.396;2022-12-10T01:02:34;99241.97;;;-1.00;100.00
70206;BME280;57593;55.896;37.396;2022-12-10T01:03:04;99243.56;;;-0.89;100.00
70206;BME280;57593;55.896;37.396;2022-12-10T01:03:35;99244.09;;;-0.77;100.00
70206;BME280;57593;55.896;37.396;2022-12-10T01:04:09;99246.69;;;-0.82;100.00
70206;BME280;57593;55.896;37.396;2022-12-10T01:04:40;99246.41;;;-0.96;100.00
70206;BME280;57593;55.896;37.396;2022-12-10T01:05:12;99259.13;;;-0.79;100.00
70206;BME280;57593;55.896;37.396;2022-12-10T01:05:43;99254.94;;;-0.95;100.00
70206;BME280;57593;55.896;37.396;2022-12-10T01:06:15;99254.97;;;-0.80;100.00
70206;BME280;57593;55.896;37.396;2022-12-10T01:06:48;99250.34;;;-0.78;100.00
70206;BME280;57593;55.896;37.396;2022-12-10T01:07:19;99255.75;;;-0.84;100.00
70206;BME280;57593;55.896;37.396;2022-12-10T01:07:50;99252.38;;;-0.90;100.00
70206;BME280;57593;55.896;37.396;2022-12-10T01:08:22;99250.81;;;-0.96;100.00
70206;BME280;57593;55.896;37.396;2022-12-10T01:08:56;99251.38;;;-0.84;100.00
70206;BME280;57593;55.896;37.396;2022-12-10T01:09:29;99254.97;;;-0.80;100.00
70206;BME280;57593;55.896;37.396;2022-12-10T01:10:00;99251.59;;;-0.96;100.00
70206;BME280;57593;55.896;37.396;2022-12-10T01:10:30;99256.50;;;-0.89;100.00
70206;BME280;57593;55.896;37.396;2022-12-10T01:11:01;99255.75;;;-0.89;100.00
70206;BME280;57593;55.896;37.396;2022-12-10T01:11:34;99260.44;;;-0.66;100.00
70206;BME280;57593;55.896;37.396;2022-12-10T01:12:05;99251.38;;;-0.68;100.00
70206;BME280;57593;55.896;37.396;2022-12-10T01:12:36;99253.97;;;-0.68;100.00
70206;BME280;57593;55.896;37.396;2022-12-10T01:13:06;99243.34;;;-0.51;100.00
70206;BME280;57593;55.896;37.396;2022-12-10T01:13:37;99241.00;;;-0.63;100.00
70206;BME280;57593;55.896;37.396;2022-12-10T01:14:11;99238.91;;;-0.77;100.00
70206;BME280;57593;55.896;37.396;2022-12-10T01:14:43;99241.22;;;-0.91;100.00
70206;BME280;57593;55.896;37.396;2022-12-10T01:15:13;99238.41;;;-0.84;100.00
70206;BME280;57593;55.896;37.396;2022-12-10T01:15:44;99245.91;;;-0.77;100.00
70206;BME280;57593;55.896;37.396;2022-12-10T01:16:17;99238.41;;;-0.68;100.00
70206;BME280;57593;55.896;37.396;2022-12-10T01:16:49;99240.19;;;-0.84;100.00
70206;BME280;57593;55.896;37.396;2022-12-10T01:17:20;99239.41;;;-0.80;100.00
70206;BME280;57593;55.896;37.396;2022-12-10T01:17:51;99233.72;;;-0.82;100.00
70206;BME280;57593;55.896;37.396;2022-12-10T01:18:22;99232.72;;;-0.65;100.00
70206;BME280;57593;55.896;37.396;2022-12-10T01:18:54;99235.03;;;-0.79;100.00
70206;BME280;57593;55.896;37.396;2022-12-10T01:19:25;99236.31;;;-0.77;100.00
70206;BME280;57593;55.896;37.396;2022-12-10T01:19:56;99234.78;;;-0.78;100.00
70206;BME280;57593;55.896;37.396;2022-12-10T01:20:27;99240.22;;;-0.74;100.00
70206;BME280;57593;55.896;37.396;2022-12-10T01:21:06;99236.81;;;-0.80;100.00
70206;BME280;57593;55.896;37.396;2022-12-10T01:21:37;99238.41;;;-0.79;100.00
70206;BME280;57593;55.896;37.396;2022-12-10T01:22:07;99234.22;;;-0.80;100.00
70206;BME280;57593;55.896;37.396;2022-12-10T01:22:40;99238.16;;;-0.67;100.00
70206;BME280;57593;55.896;37.396;2022-12-10T01:23:11;99242.28;;;-0.86;100.00
70206;BME280;57593;55.896;37.396;2022-12-10T01:23:42;99233.69;;;-0.92;100.00
70206;BME280;57593;55.896;37.396;2022-12-10T01:24:14;99227.25;;;-0.79;100.00
70206;BME280;57593;55.896;37.396;2022-12-10T01:24:44;99223.09;;;-0.75;100.00
70206;BME280;57593;55.896;37.396;2022-12-10T01:25:17;99221.81;;;-0.78;100.00
70206;BME280;57593;55.896;37.396;2022-12-10T01:25:47;99232.94;;;-0.72;100.00
70206;BME280;57593;55.896;37.396;2022-12-10T01:26:23;99234.22;;;-0.80;100.00
70206;BME280;57593;55.896;37.396;2022-12-10T01:26:54;99233.22;;;-0.68;100.00
70206;BME280;57593;55.896;37.396;2022-12-10T01:27:26;99235.06;;;-0.64;100.00
70206;BME280;57593;55.896;37.396;2022-12-10T01:27:59;99241.00;;;-0.63;100.00
70206;BME280;57593;55.896;37.396;2022-12-10T01:28:31;99251.38;;;-0.58;100.00
70206;BME280;57593;55.896;37.396;2022-12-10T01:29:03;99252.16;;;-0.73;100.00
70206;BME280;57593;55.896;37.396;2022-12-10T01:29:34;99251.38;;;-0.79;100.00
70206;BME280;57593;55.896;37.396;2022-12-10T01:30:05;99251.63;;;-0.75;100.00
70206;BME280;57593;55.896;37.396;2022-12-10T01:30:36;99251.09;;;-0.82;100.00
70206;BME280;57593;55.896;37.396;2022-12-10T01:31:09;99252.91;;;-0.83;100.00
70206;BME280;57593;55.896;37.396;2022-12-10T01:31:41;99251.38;;;-0.79;100.00
70206;BME280;57593;55.896;37.396;2022-12-10T01:32:12;99256.00;;;-0.86;100.00
70206;BME280;57593;55.896;37.396;2022-12-10T01:32:43;99254.69;;;-0.94;100.00
70206;BME280;57593;55.896;37.396;2022-12-10T01:33:13;99254.97;;;-0.90;100.00
70206;BME280;57593;55.896;37.396;2022-12-10T01:33:45;99256.00;;;-0.86;100.00
70206;BME280;57593;55.896;37.396;2022-12-10T01:34:16;99244.59;;;-0.85;100.00
70206;BME280;57593;55.896;37.396;2022-12-10T01:34:46;99250.59;;;-0.74;100.00
70206;BME280;57593;55.896;37.396;2022-12-10T01:35:17;99245.41;;;-0.59;100.00
70206;BME280;57593;55.896;37.396;2022-12-10T01:35:48;99249.31;;;-0.56;100.00
70206;BME280;57593;55.896;37.396;2022-12-10T01:36:22;99235.56;;;-0.57;100.00
70206;BME280;57593;55.896;37.396;2022-12-10T01:36:53;99234.78;;;-0.62;100.00
70206;BME280;57593;55.896;37.396;2022-12-10T01:37:24;99236.81;;;-0.85;100.00
70206;BME280;57593;55.896;37.396;2022-12-10T01:37:54;99233.97;;;-0.78;100.00
70206;BME280;57593;55.896;37.396;2022-12-10T01:38:25;99233.47;;;-0.85;100.00
70206;BME280;57593;55.896;37.396;2022-12-10T01:38:56;99241.25;;;-0.85;100.00
70206;BME280;57593;55.896;37.396;2022-12-10T01:39:27;99239.94;;;-0.83;100.00
70206;BME280;57593;55.896;37.396;2022-12-10T01:39:58;99239.72;;;-0.76;100.00
70206;BME280;57593;55.896;37.396;2022-12-10T01:40:28;99243.09;;;-0.65;100.00
70206;BME280;57593;55.896;37.396;2022-12-10T01:41:01;99245.94;;;-0.67;100.00
70206;BME280;57593;55.896;37.396;2022-12-10T01:41:39;99248.28;;;-0.65;100.00
70206;BME280;57593;55.896;37.396;2022-12-10T01:42:12;99244.66;;;-0.59;100.00
70206;BME280;57593;55.896;37.396;2022-12-10T01:42:43;99243.59;;;-0.58;100.00
70206;BME280;57593;55.896;37.396;2022-12-10T01:43:14;99243.09;;;-0.55;100.00
70206;BME280;57593;55.896;37.396;2022-12-10T01:43:59;99250.34;;;-0.62;100.00
70206;BME280;57593;55.896;37.396;2022-12-10T01:45:06;99246.97;;;-0.73;100.00
70206;BME280;57593;55.896;37.396;2022-12-10T01:45:37;99245.41;;;-0.59;100.00
70206;BME280;57593;55.896;37.396;2022-12-10T01:46:10;99236.59;;;-0.63;100.00
70206;BME280;57593;55.896;37.396;2022-12-10T01:46:43;99242.03;;;-0.64;100.00
70206;BME280;57593;55.896;37.396;2022-12-10T01:47:14;99245.94;;;-0.62;100.00
70206;BME280;57593;55.896;37.396;2022-12-10T01:47:44;99239.97;;;-0.62;100.00
70206;BME280;57593;55.896;37.396;2022-12-10T01:48:15;99252.16;;;-0.47;100.00
70206;BME280;57593;55.896;37.396;2022-12-10T01:48:46;99253.22;;;-0.59;100.00
70206;BME280;57593;55.896;37.396;2022-12-10T01:49:26;99246.47;;;-0.49;100.00
70206;BME280;57593;55.896;37.396;2022-12-10T01:49:57;99248.81;;;-0.32;100.00
70206;BME280;57593;55.896;37.396;2022-12-10T01:50:28;99253.47;;;-0.45;100.00
70206;BME280;57593;55.896;37.396;2022-12-10T01:50:58;99254.25;;;-0.34;100.00
70206;BME280;57593;55.896;37.396;2022-12-10T01:51:31;99257.63;;;-0.54;100.00
70206;BME280;57593;55.896;37.396;2022-12-10T01:52:04;99259.41;;;-0.60;100.00
70206;BME280;57593;55.896;37.396;2022-12-10T01:52:36;99259.41;;;-0.60;100.00
70206;BME280;57593;55.896;37.396;2022-12-10T01:53:07;99255.53;;;-0.52;100.00
70206;BME280;57593;55.896;37.396;2022-12-10T01:53:37;99258.16;;;-0.42;100.00
70206;BME280;57593;55.896;37.396;2022-12-10T01:54:12;99248.81;;;-0.32;100.00
70206;BME280;57593;55.896;37.396;2022-12-10T01:54:45;99236.59;;;-0.47;100.00
70206;BME280;57593;55.896;37.396;2022-12-10T01:55:47;99233.97;;;-0.78;100.00
70206;BME280;57593;55.896;37.396;2022-12-10T01:56:19;99232.41;;;-0.89;100.00
70206;BME280;57593;55.896;37.396;2022-12-10T01:56:57;99236.28;;;-0.92;100.00
70206;BME280;57593;55.896;37.396;2022-12-10T01:57:29;99227.00;;;-0.67;100.00
70206;BME280;57593;55.896;37.396;2022-12-10T01:58:00;99228.56;;;-0.66;100.00
70206;BME280;57593;55.896;37.396;2022-12-10T01:58:30;99236.59;;;-0.63;100.00
70206;BME280;57593;55.896;37.396;2022-12-10T01:59:01;99233.47;;;-0.75;100.00
70206;BME280;57593;55.896;37.396;2022-12-10T01:59:33;99238.38;;;-0.74;100.00
70206;BME280;57593;55.896;37.396;2022-12-10T02:00:06;99237.88;;;-0.70;100.00
70206;BME280;57593;55.896;37.396;2022-12-10T02:02:00;99231.13;;;-0.87;100.00
70206;BME280;57593;55.896;37.396;2022-12-10T02:02:42;99234.50;;;-0.81;100.00
70206;BME280;57593;55.896;37.396;2022-12-10T02:03:30;99242.53;;;-0.83;100.00
70206;BME280;57593;55.896;37.396;2022-12-10T02:06:14;99240.72;;;-0.82;100.00
70206;BME280;57593;55.896;37.396;2022-12-10T02:06:59;99234.75;;;-0.88;100.00
70206;BME280;57593;55.896;37.396;2022-12-10T02:08:41;99240.19;;;-0.84;100.00
70206;BME280;57593;55.896;37.396;2022-12-10T02:11:19;99237.34;;;-0.93;100.00
70206;BME280;57593;55.896;37.396;2022-12-10T02:12:49;99225.94;;;-0.82;100.00
70206;BME280;57593;55.896;37.396;2022-12-10T02:14:05;99225.94;;;-0.82;100.00
70206;BME280;57593;55.896;37.396;2022-12-10T02:14:54;99231.66;;;-0.85;100.00
70206;BME280;57593;55.896;37.396;2022-12-10T02:15:36;99227.47;;;-0.86;100.00
70206;BME280;57593;55.896;37.396;2022-12-10T02:16:18;99235.00;;;-0.84;100.00
70206;BME280;57593;55.896;37.396;2022-12-10T02:16:58;99236.84;;;-0.75;100.00
70206;BME280;57593;55.896;37.396;2022-12-10T02:17:39;99232.19;;;-0.78;100.00
70206;BME280;57593;55.896;37.396;2022-12-10T02:18:19;99237.81;;;-1.06;100.00
70206;BME280;57593;55.896;37.396;2022-12-10T02:18:56;99236.03;;;-1.01;100.00
70206;BME280;57593;55.896;37.396;2022-12-10T02:20:31;99235.44;;;-1.23;100.00
70206;BME280;57593;55.896;37.396;2022-12-10T02:21:10;99237.50;;;-1.20;100.00
70206;BME280;57593;55.896;37.396;2022-12-10T02:21:46;99236.00;;;-1.11;100.00
70206;BME280;57593;55.896;37.396;2022-12-10T02:22:19;99233.69;;;-1.02;100.00
70206;BME280;57593;55.896;37.396;2022-12-10T02:23:03;99230.28;;;-1.08;100.00
70206;BME280;57593;55.896;37.396;2022-12-10T02:23:38;99227.69;;;-1.13;100.00
70206;BME280;57593;55.896;37.396;2022-12-10T02:24:16;99225.38;;;-1.04;100.00
70206;BME280;57593;55.896;37.396;2022-12-10T02:24:50;99243.59;;;-0.84;100.00
70206;BME280;57593;55.896;37.396;2022-12-10T02:25:27;99239.69;;;-0.81;100.00
70206;BME280;57593;55.896;37.396;2022-12-10T02:27:10;99242.56;;;-0.62;100.00
70206;BME280;57593;55.896;37.396;2022-12-10T02:27:59;99235.03;;;-0.74;100.00
70206;BME280;57593;55.896;37.396;2022-12-10T02:28:42;99230.88;;;-0.85;100.00
70206;BME280;57593;55.896;37.396;2022-12-10T02:29:17;99219.97;;;-0.77;100.00
70206;BME280;57593;55.896;37.396;2022-12-10T02:29:50;99220.50;;;-0.75;100.00
70206;BME280;57593;55.896;37.396;2022-12-10T02:30:22;99222.84;;;-0.79;100.00
70206;BME280;57593;55.896;37.396;2022-12-10T02:30:53;99225.44;;;-0.68;100.00
70206;BME280;57593;55.896;37.396;2022-12-10T02:31:26;99217.16;;;-0.60;100.00
70206;BME280;57593;55.896;37.396;2022-12-10T02:32:20;99220.28;;;-0.53;100.00
70206;BME280;57593;55.896;37.396;2022-12-10T02:32:53;99219.22;;;-0.52;100.00
70206;BME280;57593;55.896;37.396;2022-12-10T02:33:25;99225.19;;;-0.62;100.00
70206;BME280;57593;55.896;37.396;2022-12-10T02:33:59;99219.75;;;-0.60;100.00
70206;BME280;57593;55.896;37.396;2022-12-10T02:34:37;99226.22;;;-0.52;100.00
70206;BME280;57593;55.896;37.396;2022-12-10T02:35:17;99227.78;;;-0.51;100.00
70206;BME280;57593;55.896;37.396;2022-12-10T02:35:50;99218.94;;;-0.45;100.00
70206;BME280;57593;55.896;37.396;2022-12-10T02:36:24;99216.34;;;-0.45;100.00
70206;BME280;57593;55.896;37.396;2022-12-10T02:37:00;99213.53;;;-0.39;100.00
70206;BME280;57593;55.896;37.396;2022-12-10T02:37:37;99220.75;;;-0.41;100.00
70206;BME280;57593;55.896;37.396;2022-12-10T02:38:12;99219.22;;;-0.37;100.00
70206;BME280;57593;55.896;37.396;2022-12-10T02:38:47;99210.38;;;-0.41;100.00
70206;BME280;57593;55.896;37.396;2022-12-10T02:39:24;99209.63;;;-0.41;100.00
70206;BME280;57593;55.896;37.396;2022-12-10T02:40:02;99211.94;;;-0.40;100.00
70206;BME280;57593;55.896;37.396;2022-12-10T02:40:39;99210.66;;;-0.52;100.00
70206;BME280;57593;55.896;37.396;2022-12-10T02:41:19;99213.78;;;-0.50;100.00
70206;BME280;57593;55.896;37.396;2022-12-10T02:41:55;99209.38;;;-0.45;100.00
70206;BME280;57593;55.896;37.396;2022-12-10T02:42:29;99212.47;;;-0.32;100.00
70206;BME280;57593;55.896;37.396;2022-12-10T02:43:01;99216.38;;;-0.40;100.00
70206;BME280;57593;55.896;37.396;2022-12-10T02:43:32;99218.19;;;-0.30;100.00
70206;BME280;57593;55.896;37.396;2022-12-10T02:44:08;99214.56;;;-0.29;100.00
70206;BME280;57593;55.896;37.396;2022-12-10T02:44:42;99215.84;;;-0.22;100.00
70206;BME280;57593;55.896;37.396;2022-12-10T02:45:15;99213.75;;;-0.30;100.00
70206;BME280;57593;55.896;37.396;2022-12-10T02:45:47;99216.88;;;-0.33;100.00
70206;BME280;57593;55.896;37.396;2022-12-10T02:46:19;99219.75;;;-0.29;100.00
70206;BME280;57593;55.896;37.396;2022-12-10T02:46:54;99215.56;;;-0.25;100.00
70206;BME280;57593;55.896;37.396;2022-12-10T02:47:28;99217.41;;;-0.31;100.00
70206;BME280;57593;55.896;37.396;2022-12-10T02:48:00;99217.41;;;-0.26;100.00
70206;BME280;57593;55.896;37.396;2022-12-10T02:48:40;99209.34;;;-0.24;100.00
70206;BME280;57593;55.896;37.396;2022-12-10T02:49:14;99207.78;;;-0.25;100.00
70206;BME280;57593;55.896;37.396;2022-12-10T02:49:47;99211.44;;;-0.26;100.00
70206;BME280;57593;55.896;37.396;2022-12-10T02:50:20;99210.13;;;-0.19;100.00
70206;BME280;57593;55.896;37.396;2022-12-10T02:50:53;99209.59;;;-0.10;100.00
70206;BME280;57593;55.896;37.396;2022-12-10T02:51:24;99204.63;;;-0.07;100.00
70206;BME280;57593;55.896;37.396;2022-12-10T02:51:54;99211.66;;;-0.02;100.00
70206;BME280;57593;55.896;37.396;2022-12-10T02:52:26;99203.88;;;-0.07;100.00
70206;BME280;57593;55.896;37.396;2022-12-10T02:52:57;99198.97;;;-0.14;100.00
70206;BME280;57593;55.896;37.396;2022-12-10T02:53:29;99213.22;;;-0.06;100.00
70206;BME280;57593;55.896;37.396;2022-12-10T02:54:05;99208.81;;;-0.06;100.00
70206;BME280;57593;55.896;37.396;2022-12-10T02:54:43;99198.69;;;-0.07;100.00
70206;BME280;57593;55.896;37.396;2022-12-10T02:55:18;99200.50;;;-0.08;100.00
70206;BME280;57593;55.896;37.396;2022-12-10T02:56:27;99194.53;;;-0.03;100.00
70206;BME280;57593;55.896;37.396;2022-12-10T02:57:10;99200.50;;;-0.08;100.00
70206;BME280;57593;55.896;37.396;2022-12-10T02:58:58;99194.81;;;-0.15;100.00
70206;BME280;57593;55.896;37.396;2022-12-10T02:59:51;99197.41;;;-0.30;100.00
70206;BME280;57593;55.896;37.396;2022-12-10T03:00:26;99197.66;;;-0.42;100.00
70206;BME280;57593;55.896;37.396;2022-12-10T03:01:23;99198.19;;;-0.35;100.00
70206;BME280;57593;55.896;37.396;2022-12-10T03:02:13;99195.84;;;-0.31;100.00
70206;BME280;57593;55.896;37.396;2022-12-10T03:03:50;99189.91;;;-0.47;100.00
70206;BME280;57593;55.896;37.396;2022-12-10T03:05:30;99190.19;;;-0.59;100.00
70206;BME280;57593;55.896;37.396;2022-12-10T03:06:21;99191.72;;;-0.63;100.00
70206;BME280;57593;55.896;37.396;2022-12-10T03:07:06;99190.91;;;-0.33;100.00